sensor_id;sensor_type;location;lat;lon;timestamp;pressure;altitude;pressure_sealevel;temperature;humidity
12358;BME280;6243;51.244;6.774;2023-04-08T00:00:36;152808.97;;;21.15;56.73
12358;BME280;6243;51.244;6.774;2023-04-08T00:03:02;152792.31;;;21.09;56.57
12358;BME280;6243;51.244;6.774;2023-04-08T00:05:27;152834.59;;;21.26;56.36
12358;BME280;6243;51.244;6.774;2023-04-08T00:07:53;152825.63;;;21.22;56.42
12358;BME280;6243;51.244;6.774;2023-04-08T00:10:20;152816.66;;;21.18;56.82
12358;BME280;6243;51.244;6.774;2023-04-08T00:12:46;152815.38;;;21.18;56.81
12358;BME280;6243;51.244;6.774;2023-04-08T00:15:12;152798.72;;;21.11;57.00
12358;BME280;6243;51.244;6.774;2023-04-08T00:17:37;152817.97;;;21.19;56.83
12358;BME280;6243;51.244;6.774;2023-04-08T00:20:03;152817.97;;;21.19;56.82
12358;BME280;6243;51.244;6.774;2023-04-08T00:22:29;152810.25;;;21.16;57.07
12358;BME280;6243;51.244;6.774;2023-04-08T00:24:54;152878.16;;;21.43;56.20
12358;BME280;6243;51.244;6.774;2023-04-08T00:27:21;152870.50;;;21.40;56.37
12358;BME280;6243;51.244;6.774;2023-04-08T00:29:46;152894.88;;;21.49;56.28
12358;BME280;6243;51.244;6.774;2023-04-08T00:32:12;152866.63;;;21.38;56.36
12358;BME280;6243;51.244;6.774;2023-04-08T00:34:38;152889.69;;;21.47;56.12
12358;BME280;6243;51.244;6.774;2023-04-08T00:37:03;152885.88;;;21.46;55.98
12358;BME280;6243;51.244;6.774;2023-04-08T00:39:29;152898.69;;;21.51;56.03
12358;BME280;6243;51.244;6.774;2023-04-08T00:41:54;152846.16;;;21.30;56.38
12358;BME280;6243;51.244;6.774;2023-04-08T00:44:21;152873.03;;;21.41;56.13
12358;BME280;6243;51.244;6.774;2023-04-08T00:46:46;152810.25;;;21.16;56.65
12358;BME280;6243;51.244;6.774;2023-04-08T00:49:12;152828.19;;;21.23;56.52
12358;BME280;6243;51.244;6.774;2023-04-08T00:51:37;152821.78;;;21.20;56.71
12358;BME280;6243;51.244;6.774;2023-04-08T00:54:04;152787.19;;;21.07;57.14
12358;BME280;6243;51.244;6.774;2023-04-08T00:56:30;152801.31;;;21.12;56.90
12358;BME280;6243;51.244;6.774;2023-04-08T00:58:57;152832.03;;;21.25;56.67
12358;BME280;6243;51.244;6.774;2023-04-08T01:01:30;152858.97;;;21.35;56.37
12358;BME280;6243;51.244;6.774;2023-04-08T01:04:06;152805.13;;;21.14;56.58
12358;BME280;6243;51.244;6.774;2023-04-08T01:06:38;152821.78;;;21.20;56.61
12358;BME280;6243;51.244;6.774;2023-04-08T01:09:05;152856.38;;;21.34;56.33
12358;BME280;6243;51.244;6.774;2023-04-08T01:11:31;152737.19;;;20.87;57.32
12358;BME280;6243;51.244;6.774;2023-04-08T01:14:00;152797.44;;;21.11;57.22
12358;BME280;6243;51.244;6.774;2023-04-08T01:16:29;152817.97;;;21.19;56.87
12358;BME280;6243;51.244;6.774;2023-04-08T01:18:54;152846.16;;;21.30;56.57
12358;BME280;6243;51.244;6.774;2023-04-08T01:21:22;152824.38;;;21.22;56.62
12358;BME280;6243;51.244;6.774;2023-04-08T01:23:56;152856.38;;;21.34;56.45
12358;BME280;6243;51.244;6.774;2023-04-08T01:26:25;152825.63;;;21.22;56.67
12358;BME280;6243;51.244;6.774;2023-04-08T01:28:52;152843.56;;;21.29;56.61
12358;BME280;6243;51.244;6.774;2023-04-08T01:31:19;152785.91;;;21.06;57.08
12358;BME280;6243;51.244;6.774;2023-04-08T01:33:47;152810.25;;;21.16;57.02
12358;BME280;6243;51.244;6.774;2023-04-08T01:36:13;152796.19;;;21.10;57.38
12358;BME280;6243;51.244;6.774;2023-04-08T01:38:40;152817.97;;;21.19;57.07
12358;BME280;6243;51.244;6.774;2023-04-08T01:41:07;152815.38;;;21.18;57.01
12358;BME280;6243;51.244;6.774;2023-04-08T01:43:38;152761.50;;;20.97;57.39
12358;BME280;6243;51.244;6.774;2023-04-08T01:46:05;152820.50;;;21.20;57.21
12358;BME280;6243;51.244;6.774;2023-04-08T01:48:32;152808.97;;;21.15;57.19
12358;BME280;6243;51.244;6.774;2023-04-08T01:50:59;152787.19;;;21.07;57.43
12358;BME280;6243;51.244;6.774;2023-04-08T01:53:25;152815.38;;;21.18;56.91
12358;BME280;6243;51.244;6.774;2023-04-08T01:55:56;152814.06;;;21.17;57.07
12358;BME280;6243;51.244;6.774;2023-04-08T01:58:23;152825.63;;;21.22;57.05
12358;BME280;6243;51.244;6.774;2023-04-08T02:00:52;152897.41;;;21.50;56.08
12358;BME280;6243;51.244;6.774;2023-04-08T02:03:20;152835.91;;;21.26;56.96
12358;BME280;6243;51.244;6.774;2023-04-08T02:05:47;152825.63;;;21.22;57.05
12358;BME280;6243;51.244;6.774;2023-04-08T02:08:13;152839.72;;;21.28;56.81
12358;BME280;6243;51.244;6.774;2023-04-08T02:10:38;152851.25;;;21.32;56.56
12358;BME280;6243;51.244;6.774;2023-04-08T02:13:04;152841.03;;;21.28;56.67
12358;BME280;6243;51.244;6.774;2023-04-08T02:15:33;152848.69;;;21.31;56.77
12358;BME280;6243;51.244;6.774;2023-04-08T02:18:06;152852.56;;;21.33;56.64
12358;BME280;6243;51.244;6.774;2023-04-08T02:20:36;152819.25;;;21.19;56.95
12358;BME280;6243;51.244;6.774;2023-04-08T02:23:06;152823.06;;;21.21;57.00
12358;BME280;6243;51.244;6.774;2023-04-08T02:25:35;152856.38;;;21.34;56.78
12358;BME280;6243;51.244;6.774;2023-04-08T02:28:03;152857.69;;;21.35;56.51
12358;BME280;6243;51.244;6.774;2023-04-08T02:30:31;152817.97;;;21.19;57.05
12358;BME280;6243;51.244;6.774;2023-04-08T02:33:01;152833.31;;;21.25;56.78
12358;BME280;6243;51.244;6.774;2023-04-08T02:35:27;152796.19;;;21.10;57.20
12358;BME280;6243;51.244;6.774;2023-04-08T02:37:53;152844.84;;;21.30;56.71
12358;BME280;6243;51.244;6.774;2023-04-08T02:40:23;152810.25;;;21.16;57.25
12358;BME280;6243;51.244;6.774;2023-04-08T02:42:49;152743.59;;;20.90;57.01
12358;BME280;6243;51.244;6.774;2023-04-08T02:45:14;152810.25;;;21.16;57.00
12358;BME280;6243;51.244;6.774;2023-04-08T02:47:40;152812.84;;;21.17;56.90
12358;BME280;6243;51.244;6.774;2023-04-08T02:50:08;152833.31;;;21.25;56.79
12358;BME280;6243;51.244;6.774;2023-04-08T02:52:34;152865.38;;;21.38;56.25
12358;BME280;6243;51.244;6.774;2023-04-08T02:54:59;152861.50;;;21.36;56.27
12358;BME280;6243;51.244;6.774;2023-04-08T02:57:25;152820.50;;;21.20;56.64
12358;BME280;6243;51.244;6.774;2023-04-08T02:59:50;152793.59;;;21.09;56.80
12358;BME280;6243;51.244;6.774;2023-04-08T03:02:16;152800.00;;;21.12;56.73
12358;BME280;6243;51.244;6.774;2023-04-08T03:04:41;152769.19;;;21.00;56.92
12358;BME280;6243;51.244;6.774;2023-04-08T03:07:08;152787.19;;;21.07;56.75
12358;BME280;6243;51.244;6.774;2023-04-08T03:09:34;152766.66;;;20.99;56.81
12358;BME280;6243;51.244;6.774;2023-04-08T03:11:59;152738.44;;;20.88;57.30
12358;BME280;6243;51.244;6.774;2023-04-08T03:14:24;152774.31;;;21.02;57.09
12358;BME280;6243;51.244;6.774;2023-04-08T03:16:50;152720.53;;;20.81;57.17
12358;BME280;6243;51.244;6.774;2023-04-08T03:19:15;152747.41;;;20.91;57.19
12358;BME280;6243;51.244;6.774;2023-04-08T03:21:41;152788.47;;;21.07;56.87
12358;BME280;6243;51.244;6.774;2023-04-08T03:24:08;152749.94;;;20.92;57.16
12358;BME280;6243;51.244;6.774;2023-04-08T03:26:33;152739.72;;;20.88;57.40
12358;BME280;6243;51.244;6.774;2023-04-08T03:28:59;152738.44;;;20.88;57.40
12358;BME280;6243;51.244;6.774;2023-04-08T03:31:24;152773.06;;;21.01;57.06
12358;BME280;6243;51.244;6.774;2023-04-08T03:33:50;152732.06;;;20.85;57.32
12358;BME280;6243;51.244;6.774;2023-04-08T03:36:15;152653.88;;;20.55;57.89
12358;BME280;6243;51.244;6.774;2023-04-08T03:38:41;152694.88;;;20.71;57.45
12358;BME280;6243;51.244;6.774;2023-04-08T03:41:08;152692.31;;;20.70;57.47
12358;BME280;6243;51.244;6.774;2023-04-08T03:43:33;152707.72;;;20.76;57.35
12358;BME280;6243;51.244;6.774;2023-04-08T03:45:59;152639.78;;;20.49;56.95
12358;BME280;6243;51.244;6.774;2023-04-08T03:48:24;152662.84;;;20.58;57.08
12358;BME280;6243;51.244;6.774;2023-04-08T03:50:50;152717.94;;;20.80;56.64
12358;BME280;6243;51.244;6.774;2023-04-08T03:53:15;152674.41;;;20.63;56.97
12358;BME280;6243;51.244;6.774;2023-04-08T03:55:41;152705.13;;;20.75;56.83
12358;BME280;6243;51.244;6.774;2023-04-08T03:58:07;152618.00;;;20.40;57.35
12358;BME280;6243;51.244;6.774;2023-04-08T04:00:34;152657.72;;;20.56;57.21
12358;BME280;6243;51.244;6.774;2023-04-08T04:02:59;152685.94;;;20.67;57.17
12358;BME280;6243;51.244;6.774;2023-04-08T04:05:25;152706.41;;;20.75;56.82
12358;BME280;6243;51.244;6.774;2023-04-08T04:07:51;152696.19;;;20.71;57.32
12358;BME280;6243;51.244;6.774;2023-04-08T04:10:16;152710.25;;;20.77;57.41
12358;BME280;6243;51.244;6.774;2023-04-08T04:12:42;152700.00;;;20.73;56.14
12358;BME280;6243;51.244;6.774;2023-04-08T04:15:10;152743.59;;;20.90;56.84
12358;BME280;6243;51.244;6.774;2023-04-08T04:17:35;152751.25;;;20.93;56.98
12358;BME280;6243;51.244;6.774;2023-04-08T04:20:03;152751.25;;;20.93;56.53
12358;BME280;6243;51.244;6.774;2023-04-08T04:22:28;152723.06;;;20.82;56.55
12358;BME280;6243;51.244;6.774;2023-04-08T04:24:54;152742.31;;;20.89;56.00
12358;BME280;6243;51.244;6.774;2023-04-08T04:27:19;152766.66;;;20.99;55.67
12358;BME280;6243;51.244;6.774;2023-04-08T04:29:45;152679.53;;;20.65;56.28
12358;BME280;6243;51.244;6.774;2023-04-08T04:32:12;152728.19;;;20.84;56.21
12358;BME280;6243;51.244;6.774;2023-04-08T04:34:37;152741.00;;;20.89;56.29
12358;BME280;6243;51.244;6.774;2023-04-08T04:37:03;152755.13;;;20.94;56.08
12358;BME280;6243;51.244;6.774;2023-04-08T04:39:28;152643.66;;;20.50;56.78
12358;BME280;6243;51.244;6.774;2023-04-08T04:41:54;152732.06;;;20.85;56.54
12358;BME280;6243;51.244;6.774;2023-04-08T04:44:19;152749.94;;;20.92;56.77
12358;BME280;6243;51.244;6.774;2023-04-08T04:46:45;152756.38;;;20.95;56.72
12358;BME280;6243;51.244;6.774;2023-04-08T04:49:11;152692.31;;;20.70;57.19
12358;BME280;6243;51.244;6.774;2023-04-08T04:51:37;152771.78;;;21.01;56.56
12358;BME280;6243;51.244;6.774;2023-04-08T04:54:02;152802.53;;;21.13;56.79
12358;BME280;6243;51.244;6.774;2023-04-08T04:56:28;152841.03;;;21.28;56.10
12358;BME280;6243;51.244;6.774;2023-04-08T04:58:53;152816.66;;;21.18;56.24
12358;BME280;6243;51.244;6.774;2023-04-08T05:01:19;152792.31;;;21.09;56.44
12358;BME280;6243;51.244;6.774;2023-04-08T05:03:44;152824.38;;;21.22;56.28
12358;BME280;6243;51.244;6.774;2023-04-08T05:06:11;152808.97;;;21.15;56.42
12358;BME280;6243;51.244;6.774;2023-04-08T05:08:37;152717.94;;;20.80;57.02
12358;BME280;6243;51.244;6.774;2023-04-08T05:11:02;152766.66;;;20.99;56.98
12358;BME280;6243;51.244;6.774;2023-04-08T05:13:28;152784.66;;;21.06;56.68
12358;BME280;6243;51.244;6.774;2023-04-08T05:15:53;152810.25;;;21.16;56.52
12358;BME280;6243;51.244;6.774;2023-04-08T05:18:19;152774.31;;;21.02;56.70
12358;BME280;6243;51.244;6.774;2023-04-08T05:20:44;152703.84;;;20.74;56.71
12358;BME280;6243;51.244;6.774;2023-04-08T05:23:11;152697.47;;;20.72;57.68
12358;BME280;6243;51.244;6.774;2023-04-08T05:25:37;152643.66;;;20.50;57.70
12358;BME280;6243;51.244;6.774;2023-04-08T05:28:03;152548.81;;;20.13;58.76
12358;BME280;6243;51.244;6.774;2023-04-08T05:30:29;152555.22;;;20.16;58.79
12358;BME280;6243;51.244;6.774;2023-04-08T05:32:54;152527.03;;;20.05;58.96
12358;BME280;6243;51.244;6.774;2023-04-08T05:35:20;152551.41;;;20.14;59.28
12358;BME280;6243;51.244;6.774;2023-04-08T05:37:46;152619.31;;;20.41;58.24
12358;BME280;6243;51.244;6.774;2023-04-08T05:40:13;152594.97;;;20.31;59.17
12358;BME280;6243;51.244;6.774;2023-04-08T05:42:38;152600.06;;;20.33;58.80
12358;BME280;6243;51.244;6.774;2023-04-08T05:45:05;152593.66;;;20.31;58.80
12358;BME280;6243;51.244;6.774;2023-04-08T05:47:31;152559.03;;;20.17;59.26
12358;BME280;6243;51.244;6.774;2023-04-08T05:49:57;152651.31;;;20.53;58.30
12358;BME280;6243;51.244;6.774;2023-04-08T05:52:22;152655.19;;;20.55;58.26
12358;BME280;6243;51.244;6.774;2023-04-08T05:54:48;152638.53;;;20.48;58.07
12358;BME280;6243;51.244;6.774;2023-04-08T05:57:15;152615.47;;;20.39;58.72
12358;BME280;6243;51.244;6.774;2023-04-08T05:59:40;152605.19;;;20.35;58.88
12358;BME280;6243;51.244;6.774;2023-04-08T06:02:06;152571.91;;;20.22;59.34
12358;BME280;6243;51.244;6.774;2023-04-08T06:04:31;152569.38;;;20.21;59.35
12358;BME280;6243;51.244;6.774;2023-04-08T06:06:57;152623.13;;;20.42;58.87
12358;BME280;6243;51.244;6.774;2023-04-08T06:09:22;152650.06;;;20.53;58.48
12358;BME280;6243;51.244;6.774;2023-04-08T06:11:48;152657.72;;;20.56;58.37
12358;BME280;6243;51.244;6.774;2023-04-08T06:14:15;152584.72;;;20.27;59.15
12358;BME280;6243;51.244;6.774;2023-04-08T06:16:40;152610.38;;;20.37;59.28
12358;BME280;6243;51.244;6.774;2023-04-08T06:19:06;152648.78;;;20.52;58.49
12358;BME280;6243;51.244;6.774;2023-04-08T06:21:31;152620.59;;;20.41;59.17
12358;BME280;6243;51.244;6.774;2023-04-08T06:23:57;152665.41;;;20.59;58.44
12358;BME280;6243;51.244;6.774;2023-04-08T06:26:22;152637.25;;;20.48;59.09
12358;BME280;6243;51.244;6.774;2023-04-08T06:28:48;152655.19;;;20.55;58.83
12358;BME280;6243;51.244;6.774;2023-04-08T06:31:15;152641.06;;;20.49;58.94
12358;BME280;6243;51.244;6.774;2023-04-08T06:33:40;152696.19;;;20.71;58.71
12358;BME280;6243;51.244;6.774;2023-04-08T06:36:07;152700.00;;;20.73;58.36
12358;BME280;6243;51.244;6.774;2023-04-08T06:38:33;152779.47;;;21.04;57.96
12358;BME280;6243;51.244;6.774;2023-04-08T06:41:01;152803.84;;;21.13;57.39
12358;BME280;6243;51.244;6.774;2023-04-08T06:43:27;152807.72;;;21.15;57.42
12358;BME280;6243;51.244;6.774;2023-04-08T06:45:52;152812.84;;;21.17;57.21
12358;BME280;6243;51.244;6.774;2023-04-08T06:48:19;152778.19;;;21.03;57.48
12358;BME280;6243;51.244;6.774;2023-04-08T06:50:44;152683.34;;;20.66;58.36
12358;BME280;6243;51.244;6.774;2023-04-08T06:53:10;152688.47;;;20.68;58.22
12358;BME280;6243;51.244;6.774;2023-04-08T06:55:36;152743.59;;;20.90;57.74
12358;BME280;6243;51.244;6.774;2023-04-08T06:58:01;152753.84;;;20.94;57.84
12358;BME280;6243;51.244;6.774;2023-04-08T07:00:26;152743.59;;;20.90;57.70
12358;BME280;6243;51.244;6.774;2023-04-08T07:02:52;152734.59;;;20.86;57.74
12358;BME280;6243;51.244;6.774;2023-04-08T07:05:19;152692.31;;;20.70;58.09
12358;BME280;6243;51.244;6.774;2023-04-08T07:07:44;152719.25;;;20.80;57.81
12358;BME280;6243;51.244;6.774;2023-04-08T07:10:11;152779.47;;;21.04;57.05
12358;BME280;6243;51.244;6.774;2023-04-08T07:12:37;152743.59;;;20.90;57.26
12358;BME280;6243;51.244;6.774;2023-04-08T07:15:03;152779.47;;;21.04;56.81
12358;BME280;6243;51.244;6.774;2023-04-08T07:17:28;152776.91;;;21.03;56.72
12358;BME280;6243;51.244;6.774;2023-04-08T07:19:54;152748.72;;;20.92;56.93
12358;BME280;6243;51.244;6.774;2023-04-08T07:22:21;152746.13;;;20.91;57.34
12358;BME280;6243;51.244;6.774;2023-04-08T07:24:47;152717.94;;;20.80;57.73
12358;BME280;6243;51.244;6.774;2023-04-08T07:27:12;152779.47;;;21.04;56.90
12358;BME280;6243;51.244;6.774;2023-04-08T07:29:38;152773.06;;;21.01;57.29
12358;BME280;6243;51.244;6.774;2023-04-08T07:32:04;152812.84;;;21.17;56.95
12358;BME280;6243;51.244;6.774;2023-04-08T07:34:29;152811.53;;;21.16;57.16
12358;BME280;6243;51.244;6.774;2023-04-08T07:36:55;152834.59;;;21.26;56.95
12358;BME280;6243;51.244;6.774;2023-04-08T07:39:21;152749.94;;;20.92;57.80
12358;BME280;6243;51.244;6.774;2023-04-08T07:41:47;152733.31;;;20.86;57.76
12358;BME280;6243;51.244;6.774;2023-04-08T07:44:12;152752.53;;;20.93;57.47
12358;BME280;6243;51.244;6.774;2023-04-08T07:46:38;152748.72;;;20.92;57.46
12358;BME280;6243;51.244;6.774;2023-04-08T07:49:04;152769.19;;;21.00;57.45
12358;BME280;6243;51.244;6.774;2023-04-08T07:51:29;152744.84;;;20.90;57.57
12358;BME280;6243;51.244;6.774;2023-04-08T07:53:55;152752.53;;;20.93;57.26
12358;BME280;6243;51.244;6.774;2023-04-08T07:56:21;152788.47;;;21.07;56.85
12358;BME280;6243;51.244;6.774;2023-04-08T07:58:47;152796.19;;;21.10;56.56
12358;BME280;6243;51.244;6.774;2023-04-08T08:01:16;152776.91;;;21.03;56.76
12358;BME280;6243;51.244;6.774;2023-04-08T08:03:42;152876.94;;;21.42;56.06
12358;BME280;6243;51.244;6.774;2023-04-08T08:06:08;152884.59;;;21.45;55.69
12358;BME280;6243;51.244;6.774;2023-04-08T08:08:35;152906.41;;;21.54;55.59
12358;BME280;6243;51.244;6.774;2023-04-08T08:11:00;152824.38;;;21.22;56.13
12358;BME280;6243;51.244;6.774;2023-04-08T08:13:27;152860.22;;;21.36;55.77
12358;BME280;6243;51.244;6.774;2023-04-08T08:15:53;152838.44;;;21.27;55.69
12358;BME280;6243;51.244;6.774;2023-04-08T08:18:18;152835.91;;;21.26;55.79
12358;BME280;6243;51.244;6.774;2023-04-08T08:20:44;152894.88;;;21.49;54.69
12358;BME280;6243;51.244;6.774;2023-04-08T08:23:09;152841.03;;;21.28;55.22
12358;BME280;6243;51.244;6.774;2023-04-08T08:25:35;152873.03;;;21.41;55.30
12358;BME280;6243;51.244;6.774;2023-04-08T08:28:01;152869.22;;;21.39;54.12
12358;BME280;6243;51.244;6.774;2023-04-08T08:30:28;152887.16;;;21.46;54.31
12358;BME280;6243;51.244;6.774;2023-04-08T08:32:53;152892.28;;;21.48;54.40
12358;BME280;6243;51.244;6.774;2023-04-08T08:35:19;152832.03;;;21.25;55.36
12358;BME280;6243;51.244;6.774;2023-04-08T08:37:44;152857.69;;;21.35;55.07
12358;BME280;6243;51.244;6.774;2023-04-08T08:40:10;152861.50;;;21.36;54.51
12358;BME280;6243;51.244;6.774;2023-04-08T08:42:36;152901.25;;;21.52;53.83
12358;BME280;6243;51.244;6.774;2023-04-08T08:45:04;152884.59;;;21.45;54.62
12358;BME280;6243;51.244;6.774;2023-04-08T08:47:31;152907.66;;;21.54;54.34
12358;BME280;6243;51.244;6.774;2023-04-08T08:49:56;152912.78;;;21.56;54.67
12358;BME280;6243;51.244;6.774;2023-04-08T08:52:22;152910.25;;;21.55;54.54
12358;BME280;6243;51.244;6.774;2023-04-08T08:54:56;152952.56;;;21.72;54.16
12358;BME280;6243;51.244;6.774;2023-04-08T08:57:21;152934.59;;;21.65;54.43
12358;BME280;6243;51.244;6.774;2023-04-08T08:59:47;152898.69;;;21.51;54.85
12358;BME280;6243;51.244;6.774;2023-04-08T09:02:25;152889.69;;;21.47;54.74
12358;BME280;6243;51.244;6.774;2023-04-08T09:05:03;152875.63;;;21.42;55.13
12358;BME280;6243;51.244;6.774;2023-04-08T09:07:30;152907.66;;;21.54;54.94
12358;BME280;6243;51.244;6.774;2023-04-08T09:09:59;152908.94;;;21.55;55.04
12358;BME280;6243;51.244;6.774;2023-04-08T09:12:25;152865.38;;;21.38;55.47
12358;BME280;6243;51.244;6.774;2023-04-08T09:15:02;152930.72;;;21.63;54.97
12358;BME280;6243;51.244;6.774;2023-04-08T09:17:31;152878.16;;;21.43;55.04
12358;BME280;6243;51.244;6.774;2023-04-08T09:20:07;152864.09;;;21.37;54.70
12358;BME280;6243;51.244;6.774;2023-04-08T09:22:33;152879.47;;;21.43;54.50
12358;BME280;6243;51.244;6.774;2023-04-08T09:24:58;152875.63;;;21.42;54.53
12358;BME280;6243;51.244;6.774;2023-04-08T09:27:32;152873.03;;;21.41;54.44
12358;BME280;6243;51.244;6.774;2023-04-08T09:30:12;152833.31;;;21.25;54.90
12358;BME280;6243;51.244;6.774;2023-04-08T09:32:46;152857.69;;;21.35;55.06
12358;BME280;6243;51.244;6.774;2023-04-08T09:35:13;152861.50;;;21.36;55.06
12358;BME280;6243;51.244;6.774;2023-04-08T09:37:38;152856.38;;;21.34;55.49
12358;BME280;6243;51.244;6.774;2023-04-08T09:40:05;152885.88;;;21.46;54.38
12358;BME280;6243;51.244;6.774;2023-04-08T09:42:32;152856.38;;;21.34;54.15
12358;BME280;6243;51.244;6.774;2023-04-08T09:45:00;152887.16;;;21.46;54.25
12358;BME280;6243;51.244;6.774;2023-04-08T09:47:32;152905.13;;;21.53;54.58
12358;BME280;6243;51.244;6.774;2023-04-08T09:50:04;152898.69;;;21.51;55.06
12358;BME280;6243;51.244;6.774;2023-04-08T09:52:33;152952.56;;;21.72;55.08
12358;BME280;6243;51.244;6.774;2023-04-08T09:55:02;152997.47;;;21.89;54.64
12358;BME280;6243;51.244;6.774;2023-04-08T09:57:36;153038.50;;;22.06;54.56
12358;BME280;6243;51.244;6.774;2023-04-08T10:00:08;153060.31;;;22.14;54.29
12358;BME280;6243;51.244;6.774;2023-04-08T10:02:40;153084.69;;;22.24;54.15
12358;BME280;6243;51.244;6.774;2023-04-08T10:05:11;153074.44;;;22.20;53.36
12358;BME280;6243;51.244;6.774;2023-04-08T10:07:39;153097.50;;;22.29;52.91
12358;BME280;6243;51.244;6.774;2023-04-08T10:10:07;153089.81;;;22.26;52.99
12358;BME280;6243;51.244;6.774;2023-04-08T10:12:33;153112.88;;;22.35;53.00
12358;BME280;6243;51.244;6.774;2023-04-08T10:15:23;153102.63;;;22.31;53.25
12358;BME280;6243;51.244;6.774;2023-04-08T10:17:50;153120.59;;;22.38;53.28
12358;BME280;6243;51.244;6.774;2023-04-08T10:20:43;153184.78;;;22.63;53.08
12358;BME280;6243;51.244;6.774;2023-04-08T10:23:11;153210.44;;;22.73;53.04
12358;BME280;6243;51.244;6.774;2023-04-08T10:25:38;153254.06;;;22.90;52.79
12358;BME280;6243;51.244;6.774;2023-04-08T10:28:24;153227.09;;;22.80;52.18
12358;BME280;6243;51.244;6.774;2023-04-08T10:30:51;153284.84;;;23.02;51.88
12358;BME280;6243;51.244;6.774;2023-04-08T10:33:20;153281.00;;;23.01;51.94
12358;BME280;6243;51.244;6.774;2023-04-08T10:35:47;153337.47;;;23.23;52.03
12358;BME280;6243;51.244;6.774;2023-04-08T10:38:15;153364.44;;;23.34;51.68
12358;BME280;6243;51.244;6.774;2023-04-08T10:40:41;153395.28;;;23.46;51.69
12358;BME280;6243;51.244;6.774;2023-04-08T10:43:07;153455.63;;;23.69;50.97
12358;BME280;6243;51.244;6.774;2023-04-08T10:45:33;153471.03;;;23.75;51.46
12358;BME280;6243;51.244;6.774;2023-04-08T10:48:11;153351.59;;;23.28;50.29
12358;BME280;6243;51.244;6.774;2023-04-08T10:50:36;153422.25;;;23.56;50.55
12358;BME280;6243;51.244;6.774;2023-04-08T10:53:02;153445.38;;;23.65;50.51
12358;BME280;6243;51.244;6.774;2023-04-08T10:55:29;153444.06;;;23.65;49.69
12358;BME280;6243;51.244;6.774;2023-04-08T10:57:55;153435.09;;;23.61;50.11
12358;BME280;6243;51.244;6.774;2023-04-08T11:00:32;153469.78;;;23.75;49.62
12358;BME280;6243;51.244;6.774;2023-04-08T11:02:59;153500.56;;;23.87;50.10
12358;BME280;6243;51.244;6.774;2023-04-08T11:05:25;153595.66;;;24.24;49.74
12358;BME280;6243;51.244;6.774;2023-04-08T11:07:51;153605.91;;;24.28;49.19
12358;BME280;6243;51.244;6.774;2023-04-08T11:10:17;153680.41;;;24.57;48.49
12358;BME280;6243;51.244;6.774;2023-04-08T11:12:44;153721.53;;;24.74;48.67
12358;BME280;6243;51.244;6.774;2023-04-08T11:15:10;153742.16;;;24.82;48.53
12358;BME280;6243;51.244;6.774;2023-04-08T11:17:37;153706.13;;;24.67;47.92
12358;BME280;6243;51.244;6.774;2023-04-08T11:20:04;153719.00;;;24.73;48.04
12358;BME280;6243;51.244;6.774;2023-04-08T11:22:29;153771.72;;;24.93;48.11
12358;BME280;6243;51.244;6.774;2023-04-08T11:24:55;153790.97;;;25.01;47.81
12358;BME280;6243;51.244;6.774;2023-04-08T11:27:21;153817.97;;;25.11;45.88
12358;BME280;6243;51.244;6.774;2023-04-08T11:29:48;153837.28;;;25.19;46.60
12358;BME280;6243;51.244;6.774;2023-04-08T11:32:14;153814.16;;;25.10;46.71
12358;BME280;6243;51.244;6.774;2023-04-08T11:34:40;153826.97;;;25.15;47.27
12358;BME280;6243;51.244;6.774;2023-04-08T11:37:05;153801.28;;;25.05;46.92
12358;BME280;6243;51.244;6.774;2023-04-08T11:39:31;153834.69;;;25.18;47.59
12358;BME280;6243;51.244;6.774;2023-04-08T11:41:56;153819.28;;;25.12;47.32
12358;BME280;6243;51.244;6.774;2023-04-08T11:44:29;153819.28;;;25.12;46.69
12358;BME280;6243;51.244;6.774;2023-04-08T11:46:56;153770.44;;;24.93;47.50
12358;BME280;6243;51.244;6.774;2023-04-08T11:49:22;153797.41;;;25.03;47.09
12358;BME280;6243;51.244;6.774;2023-04-08T11:51:54;153806.41;;;25.07;47.20
12358;BME280;6243;51.244;6.774;2023-04-08T11:54:26;153757.56;;;24.88;47.44
12358;BME280;6243;51.244;6.774;2023-04-08T11:56:51;153743.47;;;24.82;47.21
12358;BME280;6243;51.244;6.774;2023-04-08T11:59:17;153707.44;;;24.68;43.97
12358;BME280;6243;51.244;6.774;2023-04-08T12:01:42;153677.88;;;24.56;42.49
12358;BME280;6243;51.244;6.774;2023-04-08T12:04:09;153684.31;;;24.59;41.25
12358;BME280;6243;51.244;6.774;2023-04-08T12:06:35;153476.19;;;23.77;39.32
12358;BME280;6243;51.244;6.774;2023-04-08T12:09:01;153300.28;;;23.08;39.84
12358;BME280;6243;51.244;6.774;2023-04-08T12:11:27;153318.25;;;23.15;40.67
12358;BME280;6243;51.244;6.774;2023-04-08T12:13:54;153282.31;;;23.01;41.17
12358;BME280;6243;51.244;6.774;2023-04-08T12:16:20;153156.53;;;22.52;41.01
12358;BME280;6243;51.244;6.774;2023-04-08T12:18:46;153186.03;;;22.64;41.21
12358;BME280;6243;51.244;6.774;2023-04-08T12:21:14;153044.94;;;22.08;40.79
12358;BME280;6243;51.244;6.774;2023-04-08T12:23:40;153118.00;;;22.37;40.98
12358;BME280;6243;51.244;6.774;2023-04-08T12:26:06;153082.09;;;22.23;41.22
12358;BME280;6243;51.244;6.774;2023-04-08T12:28:32;153213.00;;;22.74;42.11
12358;BME280;6243;51.244;6.774;2023-04-08T12:30:58;153252.78;;;22.90;41.87
12358;BME280;6243;51.244;6.774;2023-04-08T12:33:24;153255.38;;;22.91;41.89
12358;BME280;6243;51.244;6.774;2023-04-08T12:35:50;153202.75;;;22.70;41.87
12358;BME280;6243;51.244;6.774;2023-04-08T12:38:16;153224.56;;;22.79;41.98
12358;BME280;6243;51.244;6.774;2023-04-08T12:40:42;152998.78;;;21.90;41.30
12358;BME280;6243;51.244;6.774;2023-04-08T12:43:07;153114.19;;;22.35;41.36
12358;BME280;6243;51.244;6.774;2023-04-08T12:45:33;153088.50;;;22.25;41.94
12358;BME280;6243;51.244;6.774;2023-04-08T12:47:58;152934.59;;;21.65;42.02
12358;BME280;6243;51.244;6.774;2023-04-08T12:50:24;153034.63;;;22.04;41.97
12358;BME280;6243;51.244;6.774;2023-04-08T12:52:50;153028.25;;;22.02;42.13
12358;BME280;6243;51.244;6.774;2023-04-08T12:55:17;152914.06;;;21.57;43.18
12358;BME280;6243;51.244;6.774;2023-04-08T12:57:43;153010.31;;;21.95;42.77